Time;durP1;ratioP1;P1;durP2;ratioP2;P2;SDS_P1;SDS_P2;PMS_P1;PMS_P2;Temp;Humidity;BMP_temperature;BMP_pressure;BME280_temperature;BME280_humidity;BME280_pressure;Samples;Min_cycle;Max_cycle;Signal;HPM_P1;HPM_P2
2022/09/14 00:01:18;;;;;;;4.82;2.90;;;15.20;94.10;;;;;;4959479;28;90535;-71
2022/09/14 00:04:14;;;;;;;4.10;3.25;;;15.30;94.10;;;;;;4980669;28;88717;-71
2022/09/14 00:06:42;;;;;;;3.78;2.28;;;15.20;94.30;;;;;;4980210;28;90029;-71
2022/09/14 00:09:16;;;;;;;4.22;2.30;;;15.10;94.20;;;;;;4980379;28;87367;-71
2022/09/14 00:11:43;;;;;;;8.77;2.28;;;15.10;94.20;;;;;;4978946;28;91352;-71
2022/09/14 00:14:10;;;;;;;4.28;3.60;;;15.10;94.30;;;;;;4978111;28;107788;-71
2022/09/14 00:16:39;;;;;;;4.63;1.80;;;15.10;94.30;;;;;;4946031;28;89466;-71
2022/09/14 00:19:27;;;;;;;6.07;1.80;;;15.00;94.30;;;;;;4978821;28;90917;-71
2022/09/14 00:21:58;;;;;;;7.72;1.90;;;15.00;94.30;;;;;;4980318;28;88681;-71
2022/09/14 00:24:29;;;;;;;2.75;2.50;;;15.00;94.40;;;;;;4962212;28;91179;-71
2022/09/14 00:26:56;;;;;;;3.60;3.25;;;15.00;94.50;;;;;;4978768;28;89594;-71
2022/09/14 00:29:24;;;;;;;3.53;1.77;;;14.90;94.50;;;;;;4962024;28;91198;-71
2022/09/14 00:31:51;;;;;;;8.73;2.03;;;14.90;94.50;;;;;;4980048;28;88676;-71
2022/09/14 00:34:18;;;;;;;5.45;2.67;;;14.90;94.60;;;;;;4962426;28;90774;-71
2022/09/14 00:36:48;;;;;;;6.80;2.63;;;14.80;94.70;;;;;;4980028;28;88064;-71
2022/09/14 00:39:16;;;;;;;4.82;1.90;;;14.80;94.80;;;;;;4977801;28;91836;-71
2022/09/14 00:41:45;;;;;;;3.45;1.85;;;14.80;94.90;;;;;;4979541;28;90314;-71
2022/09/14 00:44:12;;;;;;;5.35;3.13;;;14.80;94.90;;;;;;4979388;28;89437;-71
2022/09/14 00:46:43;;;;;;;3.65;2.20;;;14.80;95.00;;;;;;4979787;28;88064;-71
2022/09/14 00:49:31;;;;;;;3.55;2.03;;;14.80;95.30;;;;;;4979689;28;88386;-71
2022/09/14 00:52:02;;;;;;;7.00;2.65;;;14.80;95.10;;;;;;4979725;28;88706;-71
2022/09/14 00:54:30;;;;;;;3.40;2.63;;;14.70;95.20;;;;;;4978124;28;88736;-71
2022/09/14 00:57:00;;;;;;;6.95;2.45;;;14.70;95.20;;;;;;4962026;28;94393;-71
2022/09/14 00:59:30;;;;;;;3.20;2.00;;;14.70;95.30;;;;;;4979587;28;88298;-71
2022/09/14 01:01:57;;;;;;;3.25;2.95;;;14.70;95.30;;;;;;4977852;28;91774;-71
2022/09/14 01:04:24;;;;;;;5.65;2.97;;;14.70;95.30;;;;;;4979247;28;88646;-71
2022/09/14 01:07:28;;;;;;;4.80;2.20;;;14.70;95.20;;;;;;4978538;28;92031;-71
2022/09/14 01:10:25;;;;;;;2.10;1.90;;;14.70;95.10;;;;;;4978098;28;88245;-71
2022/09/14 01:13:04;;;;;;;3.65;2.33;;;14.60;95.20;;;;;;4977753;28;91491;-71
2022/09/14 01:15:37;;;;;;;3.80;2.95;;;14.60;95.30;;;;;;4979079;28;88649;-71
2022/09/14 01:18:12;;;;;;;5.55;2.97;;;14.50;95.40;;;;;;4961636;28;89763;-71
2022/09/14 01:20:44;;;;;;;5.45;2.35;;;14.50;95.50;;;;;;4979170;28;88148;-71
2022/09/14 01:23:32;;;;;;;5.30;2.28;;;14.50;95.60;;;;;;4979179;28;88830;-71
2022/09/14 01:26:17;;;;;;;4.88;3.40;;;14.50;95.60;;;;;;4979512;28;88652;-71
2022/09/14 01:28:58;;;;;;;4.05;2.97;;;14.40;95.70;;;;;;4977927;28;88083;-71
2022/09/14 01:31:55;;;;;;;3.03;1.80;;;14.40;95.80;;;;;;4977800;28;88347;-71
2022/09/14 01:34:30;;;;;;;3.97;2.33;;;14.40;95.90;;;;;;4977310;28;90648;-71
2022/09/14 01:37:21;;;;;;;3.25;2.05;;;14.40;95.90;;;;;;4978912;28;89435;-71
2022/09/14 01:40:00;;;;;;;4.55;1.90;;;14.40;96.00;;;;;;4976554;28;88079;-71
2022/09/14 01:42:28;;;;;;;4.35;2.45;;;14.30;96.00;;;;;;4978667;28;88128;-71
2022/09/14 01:45:00;;;;;;;8.50;2.75;;;14.30;96.40;;;;;;4977153;28;91738;-71
2022/09/14 01:47:39;;;;;;;4.15;3.22;;;14.30;96.10;;;;;;4977194;28;91191;-71
2022/09/14 01:50:12;;;;;;;3.55;2.20;;;14.40;96.10;;;;;;4978887;28;88017;-71
2022/09/14 01:52:46;;;;;;;2.63;2.42;;;14.30;96.20;;;;;;4977585;28;91001;-71
2022/09/14 01:55:24;;;;;;;7.93;3.58;;;14.30;96.20;;;;;;4977082;28;91407;-71
2022/09/14 01:58:09;;;;;;;2.47;2.20;;;14.30;96.30;;;;;;4978607;28;88555;-71
2022/09/14 02:00:41;;;;;;;3.20;2.58;;;14.30;96.20;;;;;;4977096;28;89550;-71
2022/09/14 02:03:14;;;;;;;2.83;2.20;;;14.30;96.30;;;;;;4976946;28;91200;-71
2022/09/14 02:05:51;;;;;;;3.75;3.28;;;14.30;96.30;;;;;;4976923;28;89753;-71
2022/09/14 02:08:18;;;;;;;4.65;3.33;;;14.30;96.40;;;;;;4978390;28;88639;-71
2022/09/14 02:10:45;;;;;;;6.30;2.65;;;14.30;96.30;;;;;;4976584;28;101068;-71
2022/09/14 02:13:12;;;;;;;5.57;2.30;;;14.30;96.30;;;;;;4977040;28;90877;-71
2022/09/14 02:15:39;;;;;;;7.50;3.47;;;14.30;96.30;;;;;;4978154;28;88887;-71
2022/09/14 02:18:06;;;;;;;6.28;3.00;;;14.30;96.30;;;;;;4978415;28;88542;-71
2022/09/14 02:20:43;;;;;;;7.15;3.05;;;14.30;96.60;;;;;;4976554;28;89386;-71
2022/09/14 02:23:09;;;;;;;4.82;2.47;;;14.30;96.30;;;;;;4978590;28;88585;-71
2022/09/14 02:25:39;;;;;;;4.63;2.80;;;14.30;96.30;;;;;;4977068;28;89709;-71
2022/09/14 02:28:07;;;;;;;3.75;2.83;;;14.30;96.30;;;;;;4976809;28;91889;-71
2022/09/14 02:30:47;;;;;;;6.38;3.72;;;14.30;96.40;;;;;;4960526;28;89598;-71
2022/09/14 02:33:19;;;;;;;8.57;2.83;;;14.40;96.40;;;;;;4976911;28;91046;-71
2022/09/14 02:35:52;;;;;;;4.00;3.10;;;14.30;96.40;;;;;;4978007;28;88995;-71
2022/09/14 02:38:28;;;;;;;4.53;3.47;;;14.30;96.40;;;;;;4993382;28;88698;-71
2022/09/14 02:41:22;;;;;;;3.65;2.33;;;14.30;96.40;;;;;;4977937;28;88057;-71
2022/09/14 02:44:24;;;;;;;3.53;2.15;;;14.40;96.40;;;;;;4976914;28;91176;-71
2022/09/14 02:47:14;;;;;;;4.82;2.38;;;14.40;96.30;;;;;;4976300;28;89990;-71
2022/09/14 02:49:57;;;;;;;3.60;2.58;;;14.40;96.40;;;;;;4977708;28;88447;-71
2022/09/14 02:52:52;;;;;;;4.03;2.60;;;14.50;96.50;;;;;;4978136;28;89189;-71
2022/09/14 02:55:22;;;;;;;5.65;2.78;;;14.50;96.50;;;;;;4973376;28;89634;-71
2022/09/14 02:58:08;;;;;;;5.05;2.78;;;14.50;96.50;;;;;;4976259;28;91562;-71
2022/09/14 03:00:39;;;;;;;3.42;3.05;;;14.60;96.50;;;;;;4976292;28;91179;-71
2022/09/14 03:03:07;;;;;;;4.35;2.28;;;14.60;96.50;;;;;;4978032;28;88006;-71
2022/09/14 03:05:35;;;;;;;4.03;2.30;;;14.70;96.60;;;;;;4977351;28;88346;-71
2022/09/14 03:08:03;;;;;;;3.38;3.08;;;14.70;96.50;;;;;;4977708;28;88846;-71
2022/09/14 03:10:30;;;;;;;4.55;3.97;;;14.80;96.50;;;;;;4977076;28;88559;-71
2022/09/14 03:12:58;;;;;;;8.38;2.88;;;14.80;96.50;;;;;;4975736;28;108151;-71
2022/09/14 03:15:25;;;;;;;6.47;2.35;;;14.90;96.50;;;;;;4976250;28;94251;-71
2022/09/14 03:17:53;;;;;;;3.85;2.00;;;14.90;96.50;;;;;;4977321;28;89583;-71
2022/09/14 03:20:26;;;;;;;3.40;3.03;;;15.00;96.50;;;;;;4976093;28;91890;-71
2022/09/14 03:22:53;;;;;;;4.40;2.85;;;15.00;96.50;;;;;;4976244;28;89909;-71
2022/09/14 03:25:23;;;;;;;4.18;2.40;;;15.00;96.60;;;;;;4977730;28;88290;-71
2022/09/14 03:27:52;;;;;;;4.45;3.28;;;15.10;96.60;;;;;;4976379;28;88892;-71
2022/09/14 03:30:20;;;;;;;4.00;2.40;;;15.10;96.60;;;;;;4977668;28;88836;-71
2022/09/14 03:32:47;;;;;;;4.05;2.80;;;15.10;96.50;;;;;;4977182;28;88478;-71
2022/09/14 03:35:15;;;;;;;4.55;2.30;;;15.10;96.50;;;;;;4976124;28;101460;-71
2022/09/14 03:37:43;;;;;;;3.08;1.95;;;15.20;96.50;;;;;;4979425;28;88651;-71
2022/09/14 03:40:12;;;;;;;3.90;3.58;;;15.20;96.40;;;;;;4980531;28;88526;-71
2022/09/14 03:42:43;;;;;;;4.88;2.22;;;15.20;96.40;;;;;;4963018;28;92532;-71
2022/09/14 03:45:12;;;;;;;4.03;1.98;;;15.20;96.40;;;;;;4980535;28;91024;-71
2022/09/14 03:47:39;;;;;;;3.83;2.35;;;15.20;96.40;;;;;;4979075;28;91543;-71
2022/09/14 03:50:08;;;;;;;2.92;2.00;;;15.20;96.40;;;;;;4980223;28;98543;-71
2022/09/14 03:52:36;;;;;;;3.42;2.80;;;15.20;96.50;;;;;;4979150;28;89388;-71
2022/09/14 03:55:05;;;;;;;7.38;2.53;;;15.30;96.50;;;;;;4963126;28;91090;-71
2022/09/14 03:57:32;;;;;;;4.22;2.67;;;15.30;96.50;;;;;;4980534;28;88859;-72
2022/09/14 03:59:59;;;;;;;3.92;2.25;;;15.30;96.50;;;;;;4979444;28;88630;-71
2022/09/14 04:02:28;;;;;;;3.38;2.97;;;15.40;96.50;;;;;;4979101;28;89761;-71
2022/09/14 04:04:55;;;;;;;3.20;2.05;;;15.30;96.50;;;;;;4980218;28;88181;-71
2022/09/14 04:07:22;;;;;;;5.05;2.05;;;15.30;96.40;;;;;;4978781;28;89247;-71
2022/09/14 04:09:49;;;;;;;4.53;3.55;;;15.30;96.50;;;;;;4980140;28;89398;-71
2022/09/14 04:12:16;;;;;;;3.03;2.80;;;15.40;96.50;;;;;;4980458;28;88023;-71
2022/09/14 04:14:43;;;;;;;7.25;2.42;;;15.40;96.50;;;;;;4980180;28;88366;-71
2022/09/14 04:17:09;;;;;;;6.15;2.30;;;15.40;96.50;;;;;;4978922;28;88738;-71
2022/09/14 04:19:37;;;;;;;4.45;3.88;;;15.40;96.50;;;;;;4980295;28;88900;-71
2022/09/14 04:22:04;;;;;;;6.75;3.10;;;15.40;96.50;;;;;;4978646;28;89556;-71
2022/09/14 04:24:31;;;;;;;4.88;2.28;;;15.40;96.50;;;;;;4980402;28;88325;-71
2022/09/14 04:26:58;;;;;;;6.70;2.70;;;15.40;96.50;;;;;;4962367;28;91449;-71
2022/09/14 04:29:25;;;;;;;4.32;2.97;;;15.40;96.50;;;;;;4980021;28;88617;-71
2022/09/14 04:31:52;;;;;;;8.70;3.30;;;15.40;96.50;;;;;;4979572;28;88655;-71
2022/09/14 04:34:19;;;;;;;5.78;2.60;;;15.40;96.50;;;;;;4980118;28;88550;-71
2022/09/14 04:36:46;;;;;;;6.18;2.55;;;15.40;96.50;;;;;;4962040;28;91489;-71
2022/09/14 04:39:12;;;;;;;5.22;4.05;;;15.40;96.50;;;;;;4979846;28;88658;-71
2022/09/14 04:41:40;;;;;;;4.40;2.85;;;15.40;96.50;;;;;;4979557;28;89120;-71
2022/09/14 04:44:07;;;;;;;6.75;2.42;;;15.40;96.50;;;;;;4962023;28;90994;-71
2022/09/14 04:46:34;;;;;;;3.33;2.65;;;15.40;96.50;;;;;;4979805;28;87950;-71
2022/09/14 04:49:02;;;;;;;3.95;3.50;;;15.40;96.50;;;;;;4979159;28;88609;-71
2022/09/14 04:51:30;;;;;;;4.57;2.70;;;15.40;96.50;;;;;;4979645;28;89066;-71
2022/09/14 04:53:58;;;;;;;3.53;2.30;;;15.40;96.60;;;;;;4978355;28;88315;-71
2022/09/14 04:56:26;;;;;;;3.38;2.60;;;15.40;96.60;;;;;;4979019;28;89637;-71
2022/09/14 04:58:58;;;;;;;4.95;4.35;;;15.40;96.50;;;;;;4979360;28;89332;-71
2022/09/14 05:01:27;;;;;;;4.38;2.50;;;15.40;96.50;;;;;;4979397;28;87997;-71
2022/09/14 05:03:55;;;;;;;4.32;2.67;;;15.50;96.50;;;;;;4977992;28;91134;-71
2022/09/14 05:06:25;;;;;;;3.17;2.88;;;15.50;96.50;;;;;;4962119;28;88647;-71
2022/09/14 05:08:54;;;;;;;4.93;3.55;;;15.50;96.60;;;;;;4977968;28;88176;-71
2022/09/14 05:11:23;;;;;;;6.90;2.58;;;15.50;96.80;;;;;;4978239;28;87969;-71
2022/09/14 05:13:51;;;;;;;6.35;2.60;;;15.50;96.60;;;;;;4979373;28;88300;-71
2022/09/14 05:16:24;;;;;;;4.43;2.55;;;15.60;96.60;;;;;;4978074;28;88685;-71
2022/09/14 05:18:53;;;;;;;4.78;2.95;;;15.60;96.60;;;;;;4961405;28;91320;-71
2022/09/14 05:21:22;;;;;;;4.63;3.20;;;15.60;96.60;;;;;;4978679;28;89318;-71
2022/09/14 05:24:00;;;;;;;6.93;2.92;;;15.60;96.60;;;;;;4978552;28;101430;-71
2022/09/14 05:26:28;;;;;;;4.20;2.50;;;15.70;96.60;;;;;;4977819;28;91607;-71
2022/09/14 05:28:57;;;;;;;3.30;3.00;;;15.70;96.60;;;;;;4977311;28;91512;-71
2022/09/14 05:31:26;;;;;;;6.90;3.75;;;15.80;96.70;;;;;;4978684;28;87958;-72
2022/09/14 05:33:53;;;;;;;7.20;2.60;;;15.80;96.70;;;;;;4977169;28;90965;-71
2022/09/14 05:36:20;;;;;;;4.25;3.85;;;15.80;96.70;;;;;;4977689;28;88729;-71
2022/09/14 05:38:47;;;;;;;5.10;3.65;;;15.80;96.60;;;;;;4979179;28;88891;-72
2022/09/14 05:41:15;;;;;;;4.63;2.90;;;15.80;96.60;;;;;;4977124;28;88056;-71
2022/09/14 05:43:42;;;;;;;8.30;2.72;;;15.90;96.60;;;;;;4978907;28;88651;-71
2022/09/14 05:46:12;;;;;;;6.60;3.47;;;15.90;96.60;;;;;;4977751;28;99895;-71
2022/09/14 05:48:40;;;;;;;4.68;3.75;;;16.00;96.60;;;;;;4978417;28;89412;-71
2022/09/14 05:51:19;;;;;;;5.70;3.38;;;16.00;96.60;;;;;;4978548;28;88007;-71
2022/09/14 05:53:50;;;;;;;6.97;2.67;;;16.00;96.50;;;;;;4978751;28;88093;-71
2022/09/14 05:56:19;;;;;;;4.57;3.60;;;16.00;96.60;;;;;;4978545;28;88857;-71
2022/09/14 05:58:47;;;;;;;4.35;2.17;;;16.10;96.60;;;;;;4977856;28;88970;-71
2022/09/14 06:01:18;;;;;;;4.45;3.05;;;16.10;96.60;;;;;;4977996;28;87920;-71
2022/09/14 06:03:46;;;;;;;4.72;3.55;;;16.10;96.50;;;;;;4961329;28;91079;-71
2022/09/14 06:06:16;;;;;;;6.88;2.70;;;16.20;96.60;;;;;;4976735;28;91580;-71
2022/09/14 06:08:43;;;;;;;5.00;3.03;;;16.20;96.50;;;;;;4978129;28;88707;-71
2022/09/14 06:11:18;;;;;;;6.85;3.42;;;16.30;96.50;;;;;;4978106;28;89190;-71
2022/09/14 06:13:46;;;;;;;6.47;2.70;;;16.30;96.50;;;;;;4976757;28;89495;-71
2022/09/14 06:16:15;;;;;;;7.05;3.15;;;16.30;96.50;;;;;;4977996;28;88846;-71
2022/09/14 06:18:43;;;;;;;3.33;2.30;;;16.40;96.50;;;;;;4978385;28;88506;-71
2022/09/14 06:21:15;;;;;;;4.03;2.83;;;16.40;96.40;;;;;;4978006;28;88092;-71
2022/09/14 06:23:43;;;;;;;4.82;2.50;;;16.40;96.40;;;;;;4978309;28;88279;-71
2022/09/14 06:26:10;;;;;;;3.17;2.60;;;16.50;96.40;;;;;;4977849;28;88693;-71
2022/09/14 06:28:38;;;;;;;3.88;3.03;;;16.60;96.40;;;;;;4977315;28;87423;-71
2022/09/14 06:31:08;;;;;;;3.40;2.92;;;16.60;96.30;;;;;;4978077;28;87963;-71
2022/09/14 06:33:36;;;;;;;10.07;2.30;;;16.70;96.20;;;;;;4978012;28;88394;-71
2022/09/14 06:36:11;;;;;;;6.20;2.35;;;16.70;96.10;;;;;;4976111;28;92284;-71
2022/09/14 06:38:39;;;;;;;7.78;3.45;;;16.80;96.00;;;;;;4976479;28;89370;-71
2022/09/14 06:41:08;;;;;;;5.03;2.40;;;16.90;96.00;;;;;;4975980;28;88091;-71
2022/09/14 06:43:37;;;;;;;5.47;2.65;;;16.90;96.00;;;;;;4976503;28;91064;-71
2022/09/14 06:46:19;;;;;;;3.30;2.70;;;17.00;95.90;;;;;;4977277;28;88724;-71
2022/09/14 06:49:02;;;;;;;4.95;2.70;;;17.10;95.90;;;;;;4978068;28;88552;-71
2022/09/14 06:51:34;;;;;;;4.50;2.25;;;17.20;95.80;;;;;;4976771;28;88103;-71
2022/09/14 06:54:03;;;;;;;3.42;3.10;;;17.30;95.70;;;;;;4976824;28;90045;-71
2022/09/14 06:56:38;;;;;;;3.83;3.53;;;17.40;95.60;;;;;;4959959;28;88806;-71
2022/09/14 06:59:07;;;;;;;7.38;4.35;;;17.60;95.40;;;;;;4976525;28;91277;-71
2022/09/14 07:01:35;;;;;;;4.60;2.55;;;17.70;95.40;;;;;;4975998;28;88796;-71
2022/09/14 07:04:02;;;;;;;3.95;2.58;;;17.80;95.30;;;;;;4975936;28;107363;-72
2022/09/14 07:06:39;;;;;;;3.47;3.03;;;17.90;95.20;;;;;;4977445;28;88905;-71
2022/09/14 07:09:06;;;;;;;4.57;2.85;;;18.10;95.00;;;;;;4977876;28;88606;-71
2022/09/14 07:11:33;;;;;;;5.10;2.20;;;18.20;95.00;;;;;;4978692;28;88402;-71
2022/09/14 07:14:01;;;;;;;4.53;3.20;;;18.30;94.90;;;;;;4980867;28;88123;-71
2022/09/14 07:16:30;;;;;;;3.50;1.80;;;18.40;94.70;;;;;;4963268;28;90308;-72
2022/09/14 07:19:03;;;;;;;4.95;3.25;;;18.50;94.50;;;;;;4980207;28;91074;-71
2022/09/14 07:21:31;;;;;;;4.80;2.03;;;18.70;94.30;;;;;;4979694;28;89415;-71
2022/09/14 07:23:59;;;;;;;7.55;3.80;;;18.70;94.20;;;;;;4980779;28;88716;-71
2022/09/14 07:26:29;;;;;;;2.65;2.42;;;18.80;94.00;;;;;;4980279;28;89578;-71
2022/09/14 07:28:59;;;;;;;3.42;2.47;;;18.90;93.90;;;;;;4979156;28;91123;-71
2022/09/14 07:31:35;;;;;;;4.68;3.05;;;18.90;93.80;;;;;;4980786;28;88042;-70
2022/09/14 07:34:03;;;;;;;4.38;2.72;;;19.00;93.90;;;;;;4996297;28;88054;-71
2022/09/14 07:36:33;;;;;;;6.00;2.20;;;19.10;93.80;;;;;;4995783;28;91201;-71
2022/09/14 07:39:03;;;;;;;5.45;2.35;;;19.20;93.60;;;;;;4980893;28;88708;-71
2022/09/14 07:41:32;;;;;;;3.97;2.08;;;19.30;93.50;;;;;;4978340;28;100191;-71
2022/09/14 07:44:01;;;;;;;4.93;1.65;;;19.40;93.40;;;;;;4981069;28;88597;-71
2022/09/14 07:46:31;;;;;;;4.75;1.95;;;19.60;93.30;;;;;;4963028;28;88450;-71
2022/09/14 07:49:00;;;;;;;5.22;1.95;;;19.70;93.00;;;;;;4995729;28;88574;-70
2022/09/14 07:51:29;;;;;;;4.57;2.38;;;19.80;92.80;;;;;;4978719;28;88812;-70
2022/09/14 07:53:56;;;;;;;3.70;1.73;;;19.90;92.70;;;;;;4978820;28;99380;-70
2022/09/14 07:56:24;;;;;;;5.93;2.85;;;20.00;92.70;;;;;;4979203;28;89145;-70
2022/09/14 07:58:57;;;;;;;4.50;2.33;;;20.00;92.60;;;;;;4978956;28;89742;-70
2022/09/14 08:01:37;;;;;;;3.55;2.28;;;20.20;92.40;;;;;;4979338;28;88162;-70
2022/09/14 08:04:05;;;;;;;5.25;1.50;;;20.20;92.40;;;;;;4979704;28;107627;-70
2022/09/14 08:06:32;;;;;;;3.22;1.73;;;20.30;92.40;;;;;;4978835;28;97800;-70
2022/09/14 08:08:59;;;;;;;3.88;1.90;;;20.30;92.30;;;;;;4979598;28;88233;-70
2022/09/14 08:11:31;;;;;;;6.07;1.90;;;20.40;92.10;;;;;;4979816;28;88812;-70
2022/09/14 08:14:00;;;;;;;2.38;0.95;;;20.50;92.10;;;;;;4978481;28;88517;-70
2022/09/14 08:16:28;;;;;;;5.65;2.08;;;20.50;91.90;;;;;;4979195;28;91734;-70
2022/09/14 08:18:58;;;;;;;2.70;1.20;;;20.60;91.70;;;;;;4980388;28;88714;-70
2022/09/14 08:21:27;;;;;;;4.72;0.95;;;20.70;91.50;;;;;;4979960;28;88527;-70
2022/09/14 08:23:54;;;;;;;4.88;3.40;;;20.70;91.20;;;;;;4978728;28;97583;-70
2022/09/14 08:26:22;;;;;;;4.63;1.50;;;20.80;91.20;;;;;;4979820;28;89757;-70
2022/09/14 08:28:50;;;;;;;2.15;1.88;;;20.80;91.20;;;;;;4980095;28;95293;-70
2022/09/14 08:31:23;;;;;;;3.40;1.45;;;20.90;91.10;;;;;;4979859;28;88365;-70
2022/09/14 08:33:56;;;;;;;3.50;1.83;;;20.90;91.10;;;;;;4978476;28;87455;-70
2022/09/14 08:36:24;;;;;;;3.75;1.10;;;20.90;91.00;;;;;;4977367;28;88189;-70
2022/09/14 08:38:51;;;;;;;2.35;2.15;;;21.00;90.90;;;;;;4978749;28;88620;-70
2022/09/14 08:41:27;;;;;;;4.18;1.60;;;21.00;90.70;;;;;;4979120;28;88791;-70
2022/09/14 08:44:05;;;;;;;4.57;1.90;;;21.10;90.50;;;;;;4979898;28;88232;-70
2022/09/14 08:46:39;;;;;;;3.03;1.25;;;21.20;90.00;;;;;;4978081;28;87945;-70
2022/09/14 08:49:24;;;;;;;4.50;2.05;;;21.30;89.30;;;;;;4978478;28;88586;-70
2022/09/14 08:51:51;;;;;;;2.67;2.03;;;21.30;89.20;;;;;;4978391;28;88131;-70
2022/09/14 08:54:18;;;;;;;3.70;1.77;;;21.40;88.50;;;;;;4978325;28;88339;-70
2022/09/14 08:56:53;;;;;;;4.18;1.08;;;21.50;88.70;;;;;;4975865;28;93210;-70
2022/09/14 08:59:47;;;;;;;3.63;1.60;;;21.70;88.30;;;;;;4975828;28;96381;-70
2022/09/14 09:02:35;;;;;;;4.50;2.10;;;21.90;87.00;;;;;;4976956;28;92390;-70
2022/09/14 09:05:26;;;;;;;6.55;1.65;;;22.00;87.10;;;;;;4975802;28;96451;-73
2022/09/14 09:08:09;;;;;;;3.53;1.15;;;22.10;85.70;;;;;;4949908;28;95920;-73
2022/09/14 09:10:37;;;;;;;6.68;1.33;;;22.20;84.80;;;;;;4954369;28;95222;-76
2022/09/14 09:13:06;;;;;;;6.15;1.67;;;22.30;84.60;;;;;;4958525;28;93402;-76
2022/09/14 09:15:43;;;;;;;4.10;1.52;;;22.40;83.60;;;;;;4955528;28;92605;-76
2022/09/14 09:18:20;;;;;;;3.40;1.38;;;22.40;82.60;;;;;;4956800;28;96334;-75
2022/09/14 09:20:53;;;;;;;4.43;1.23;;;22.40;82.30;;;;;;4956667;28;92955;-73
2022/09/14 09:23:22;;;;;;;6.10;1.40;;;22.40;81.60;;;;;;4957652;28;92558;-73
2022/09/14 09:25:54;;;;;;;3.15;1.30;;;22.20;82.50;;;;;;4957274;28;91763;-75
2022/09/14 09:28:22;;;;;;;4.93;2.78;;;22.20;82.90;;;;;;4973600;28;92776;-74
2022/09/14 09:30:50;;;;;;;7.57;2.22;;;22.00;82.00;;;;;;4974600;28;111635;-73
2022/09/14 09:33:22;;;;;;;6.97;2.42;;;21.90;82.20;;;;;;4974436;28;94881;-73
2022/09/14 09:36:13;;;;;;;;;;;21.80;82.10;;;;;;4975862;28;93403;-73
2022/09/14 09:38:41;;;;;;;6.85;2.70;;;21.60;82.90;;;;;;4975862;28;95563;-73
2022/09/14 09:41:26;;;;;;;5.25;2.13;;;21.50;83.90;;;;;;4974638;28;95355;-73
2022/09/14 09:44:01;;;;;;;5.18;2.22;;;21.60;83.20;;;;;;4959421;28;92432;-73
2022/09/14 09:46:34;;;;;;;5.18;2.30;;;21.60;83.10;;;;;;4975476;28;92439;-73
2022/09/14 09:49:13;;;;;;;8.23;2.95;;;21.50;82.70;;;;;;4959319;28;92577;-73
2022/09/14 09:51:40;;;;;;;5.55;2.75;;;21.40;82.90;;;;;;4976624;28;94687;-73
2022/09/14 09:54:12;;;;;;;6.07;3.17;;;21.40;83.30;;;;;;4976634;28;92400;-73
2022/09/14 09:56:58;;;;;;;8.40;2.93;;;21.40;83.40;;;;;;4976478;28;92960;-73
2022/09/14 09:59:34;;;;;;;4.25;1.25;;;21.40;83.20;;;;;;4957428;28;96599;-73
2022/09/14 10:02:25;;;;;;;7.55;1.65;;;21.50;82.50;;;;;;4976499;28;95915;-73
2022/09/14 10:05:07;;;;;;;3.95;2.15;;;21.70;81.80;;;;;;4976240;28;92598;-73
2022/09/14 10:07:49;;;;;;;7.35;2.85;;;21.80;81.00;;;;;;4976245;28;92563;-73
2022/09/14 10:10:19;;;;;;;7.50;1.92;;;22.10;79.80;;;;;;4976345;28;92343;-73
2022/09/14 10:12:51;;;;;;;4.38;1.60;;;22.20;79.50;;;;;;4976091;28;93155;-73
2022/09/14 10:15:27;;;;;;;8.93;2.10;;;22.50;78.90;;;;;;4976586;28;92449;-73
2022/09/14 10:18:07;;;;;;;5.95;1.70;;;22.80;77.80;;;;;;4974818;28;91789;-73
2022/09/14 10:20:38;;;;;;;7.63;1.90;;;23.00;76.40;;;;;;4976223;28;93300;-73
2022/09/14 10:23:22;;;;;;;5.70;1.52;;;23.20;76.20;;;;;;4976217;28;92893;-73
2022/09/14 10:25:52;;;;;;;6.03;1.58;;;23.40;74.90;;;;;;4974836;28;94864;-73
2022/09/14 10:28:32;;;;;;;5.72;1.38;;;23.40;76.10;;;;;;4974636;28;93211;-73
2022/09/14 10:31:14;;;;;;;5.40;1.50;;;23.30;75.10;;;;;;4974645;28;92995;-73
2022/09/14 10:33:41;;;;;;;5.10;2.63;;;23.20;75.20;;;;;;4975898;28;92939;-73
2022/09/14 10:36:18;;;;;;;4.10;2.38;;;23.10;75.70;;;;;;4958841;28;92594;-73
2022/09/14 10:38:51;;;;;;;7.53;2.25;;;23.10;75.20;;;;;;4974342;28;92508;-73
2022/09/14 10:42:17;;;;;;;7.80;2.65;;;23.20;75.30;;;;;;4975396;28;93223;-73
2022/09/14 10:45:08;;;;;;;4.10;1.38;;;23.20;74.90;;;;;;4941977;28;92962;-73
2022/09/14 10:48:22;;;;;;;7.03;1.30;;;23.10;73.90;;;;;;4976037;28;92349;-73
2022/09/14 10:51:04;;;;;;;;;;;23.10;72.10;;;;;;4969378;28;92467;-73
2022/09/14 10:53:57;;;;;;;4.22;1.45;;;22.90;71.70;;;;;;4974391;28;95866;-73
2022/09/14 10:56:58;;;;;;;2.90;1.42;;;23.00;72.00;;;;;;4975655;28;95378;-73
2022/09/14 10:59:31;;;;;;;4.68;1.35;;;23.00;73.70;;;;;;4975772;28;92536;-73
2022/09/14 11:02:12;;;;;;;3.28;1.40;;;23.10;72.90;;;;;;4975694;28;92494;-73
2022/09/14 11:04:55;;;;;;;5.82;1.73;;;23.20;72.40;;;;;;4974033;28;95689;-73
2022/09/14 11:07:49;;;;;;;4.45;1.27;;;23.30;71.40;;;;;;4975545;28;92755;-73
2022/09/14 11:10:33;;;;;;;2.13;0.98;;;23.40;71.50;;;;;;4957708;28;92529;-73
2022/09/14 11:13:22;;;;;;;5.45;1.90;;;23.70;71.40;;;;;;4975872;28;91604;-73
2022/09/14 11:15:48;;;;;;;7.60;1.70;;;23.90;71.20;;;;;;4975339;28;93932;-73
2022/09/14 11:18:51;;;;;;;4.45;2.60;;;24.20;71.00;;;;;;4975329;28;93008;-73
2022/09/14 11:21:23;;;;;;;6.30;1.60;;;24.40;69.50;;;;;;4932733;28;94930;-73
2022/09/14 11:24:13;;;;;;;6.13;1.95;;;24.50;69.40;;;;;;4968543;28;92554;-73
2022/09/14 11:26:44;;;;;;;5.30;1.90;;;24.60;69.00;;;;;;4974108;28;93327;-73
2022/09/14 11:29:33;;;;;;;4.07;1.38;;;24.60;68.90;;;;;;4973912;28;93045;-73
2022/09/14 11:32:26;;;;;;;4.07;1.83;;;24.90;67.90;;;;;;4973621;28;92631;-73
2022/09/14 11:34:59;;;;;;;2.90;2.33;;;25.10;66.80;;;;;;4975378;28;92678;-73
2022/09/14 11:37:44;;;;;;;5.63;2.40;;;25.10;66.70;;;;;;4973580;28;95787;-73
2022/09/14 11:40:31;;;;;;;5.00;1.52;;;25.10;65.70;;;;;;4973832;28;95488;-73
2022/09/14 11:43:14;;;;;;;3.65;1.23;;;25.10;65.20;;;;;;4975024;28;92509;-73
2022/09/14 11:45:47;;;;;;;2.43;1.00;;;25.10;64.90;;;;;;4975328;28;92812;-73
2022/09/14 11:48:31;;;;;;;5.20;2.45;;;25.00;64.50;;;;;;4974210;28;95647;-73
2022/09/14 11:51:22;;;;;;;7.00;1.73;;;24.80;65.50;;;;;;4974978;28;95556;-73
2022/09/14 11:53:49;;;;;;;4.47;1.45;;;24.60;66.10;;;;;;4973471;28;92511;-74
2022/09/14 11:56:25;;;;;;;5.25;2.67;;;24.40;65.60;;;;;;4975254;28;93147;-73
2022/09/14 11:59:02;;;;;;;4.30;1.50;;;24.40;65.50;;;;;;4977054;28;93130;-73
2022/09/14 12:01:36;;;;;;;6.10;2.38;;;24.60;65.60;;;;;;4978188;28;92945;-73
2022/09/14 12:04:15;;;;;;;6.10;1.58;;;24.80;65.60;;;;;;4976996;28;92674;-73
2022/09/14 12:06:52;;;;;;;3.50;1.30;;;25.10;64.20;;;;;;4977214;28;92470;-73
2022/09/14 12:09:20;;;;;;;2.88;1.40;;;25.20;64.00;;;;;;4978189;28;93217;-73
2022/09/14 12:11:58;;;;;;;4.32;2.65;;;25.30;63.90;;;;;;4976584;28;95863;-73
2022/09/14 12:14:28;;;;;;;4.82;2.05;;;25.30;63.70;;;;;;4975200;28;94824;-73
2022/09/14 12:17:21;;;;;;;3.65;1.20;;;25.30;64.50;;;;;;4976748;28;92437;-73
2022/09/14 12:20:41;;;;;;;3.83;2.45;;;25.30;65.10;;;;;;4977784;28;93265;-73
2022/09/14 12:23:50;;;;;;;7.05;1.90;;;25.20;66.10;;;;;;4976183;28;92938;-73
2022/09/14 12:26:18;;;;;;;4.90;2.20;;;24.90;67.20;;;;;;4936376;28;92505;-73
2022/09/14 12:28:49;;;;;;;4.70;1.80;;;24.70;67.70;;;;;;4936577;28;92592;-73
2022/09/14 12:31:43;;;;;;;6.25;1.77;;;24.60;67.60;;;;;;4964158;28;95963;-73
2022/09/14 12:34:15;;;;;;;3.95;1.50;;;24.50;67.40;;;;;;4976527;28;92740;-73
2022/09/14 12:36:42;;;;;;;5.13;1.80;;;24.30;68.10;;;;;;4978030;28;92483;-73
2022/09/14 12:39:27;;;;;;;5.15;1.30;;;24.20;68.40;;;;;;4975774;28;92705;-73
2022/09/14 12:41:54;;;;;;;7.47;1.80;;;24.10;68.90;;;;;;4976474;28;95536;-73
2022/09/14 12:44:39;;;;;;;5.15;1.60;;;24.00;68.80;;;;;;4977301;28;94141;-73
2022/09/14 12:47:24;;;;;;;8.05;1.50;;;24.00;68.60;;;;;;4977342;28;92357;-73
2022/09/14 12:49:56;;;;;;;4.15;1.85;;;24.00;68.50;;;;;;4975996;28;92462;-73
2022/09/14 12:52:32;;;;;;;5.05;1.40;;;24.00;69.10;;;;;;4976286;28;93686;-73
2022/09/14 12:55:23;;;;;;;4.80;1.52;;;24.10;67.90;;;;;;4977264;28;93005;-73
2022/09/14 12:58:00;;;;;;;7.55;2.10;;;24.10;67.40;;;;;;4976274;28;93111;-74
2022/09/14 13:00:31;;;;;;;5.25;1.50;;;24.20;67.70;;;;;;4977599;28;91804;-73
2022/09/14 13:03:39;;;;;;;6.13;1.40;;;24.20;67.20;;;;;;4975574;28;95079;-73
2022/09/14 13:06:11;;;;;;;4.95;1.40;;;24.30;66.30;;;;;;4976590;28;92925;-73
2022/09/14 13:08:46;;;;;;;4.63;1.20;;;24.20;67.30;;;;;;4974246;28;95344;-72
2022/09/14 13:11:29;;;;;;;5.68;1.98;;;24.10;67.60;;;;;;4975600;28;92964;-73
2022/09/14 13:13:58;;;;;;;5.72;2.33;;;24.10;67.40;;;;;;4977068;28;93316;-72
2022/09/14 13:16:46;;;;;;;6.07;1.50;;;24.20;67.30;;;;;;4976216;28;106537;-73
2022/09/14 13:19:25;;;;;;;5.40;1.20;;;24.40;66.20;;;;;;4975248;28;93340;-73
2022/09/14 13:21:57;;;;;;;4.80;1.40;;;24.40;67.00;;;;;;4977052;28;92433;-72
2022/09/14 13:24:35;;;;;;;6.27;2.17;;;24.40;65.90;;;;;;4976691;28;93324;-73